This is the latest recevied weather packets stored in our database for station/object KE8CZD. If no packets are shown the sender has not sent any weather packets the latest 10 day(s).
| Time | Temp. | Humidity | Pressure | Rain* | Wind** | Luminosity | Snow |
|---|---|---|---|---|---|---|---|
| 1778218605 | 5.56° C | 99% | 1009.3 hPa | 0 mm | - | - | - |
| 1778218244 | 5.56° C | 99% | 0 hPa | 0 mm | - | - | - |
| 1778217884 | 5.56° C | 98% | 1009.4 hPa | 0 mm | - | - | - |
| 1778217526 | 5.56° C | 97% | 1009.2 hPa | 0 mm | - | - | - |
| 1778217165 | 5.56° C | 97% | 1009.2 hPa | 0.25 mm | - | - | - |
| 1778216805 | 5.56° C | 95% | 1009.2 hPa | 0.25 mm | - | - | - |
| 1778216445 | 6.11° C | 95% | 1009.1 hPa | 0.25 mm | - | - | - |
| 1778216084 | 6.11° C | 93% | 1009.1 hPa | 0.25 mm | - | - | - |
| 1778215724 | 6.11° C | 92% | 1009.3 hPa | 0.25 mm | - | - | - |
| 1778215365 | 6.11° C | 91% | 1009.3 hPa | 0.25 mm | - | - | - |
| 1778215005 | 6.11° C | 90% | 1009.3 hPa | 0.25 mm | - | - | - |
| 1778214644 | 6.11° C | 89% | 1009.4 hPa | 0.25 mm | - | - | - |
| 1778214285 | 6.67° C | 85% | 1009.4 hPa | 0.25 mm | - | - | - |
| 1778213924 | 6.67° C | 82% | 1009.4 hPa | 0 mm | - | - | - |
| 1778213564 | 6.67° C | 79% | 1009.7 hPa | 0 mm | - | - | - |
| 1778213206 | 7.22° C | 77% | 1009.8 hPa | 0 mm | - | - | - |
| 1778212844 | 7.22° C | 72% | 1009.7 hPa | 0 mm | - | - | - |
| 1778212485 | 8.33° C | 60% | 1009.4 hPa | 0 mm | - | - | - |
| 1778212124 | 8.89° C | 56% | 1009.2 hPa | 0 mm | - | - | - |
| 1778211765 | 8.89° C | 54% | 1009.1 hPa | 0 mm | - | - | - |
| 1778211404 | 8.89° C | 54% | 1009 hPa | 0 mm | - | - | - |
| 1778211044 | 8.89° C | 54% | 1008.7 hPa | 0 mm | - | - | - |
| 1778210685 | 8.89° C | 53% | 1008.8 hPa | 0 mm | - | - | - |
| 1778210325 | 8.89° C | 52% | 1008.8 hPa | 0 mm | - | - | - |
| 1778209964 | 8.89° C | 52% | 1008.9 hPa | 0 mm | - | - | - |
* Rain latest hour (hover to see other rain measurements)
** Current wind speed in m/s (hover to see current wind gust speed)